createdAt,value
2023-05-18T00:02:21.903Z,100253.25
2023-05-18T00:04:49.949Z,100248.28
2023-05-18T00:07:18.015Z,100244.72
2023-05-18T00:09:45.989Z,100248.94
2023-05-18T00:12:15.403Z,100245.00
2023-05-18T00:14:43.431Z,100239.06
2023-05-18T00:17:11.416Z,100244.59
2023-05-18T00:19:40.791Z,100253.31
2023-05-18T00:22:08.933Z,100250.13
2023-05-18T00:24:37.192Z,100238.53
2023-05-18T00:27:05.658Z,100233.88
2023-05-18T00:29:34.958Z,100238.38
2023-05-18T00:32:03.158Z,100245.69
2023-05-18T00:34:31.438Z,100239.25
2023-05-18T00:36:59.517Z,100242.59
2023-05-18T00:39:27.456Z,100235.66
2023-05-18T00:41:55.474Z,100227.28
2023-05-18T00:44:23.488Z,100228.06
2023-05-18T00:46:52.799Z,100237.50
2023-05-18T00:49:21.124Z,100247.97
2023-05-18T00:51:49.357Z,100270.38
2023-05-18T00:54:19.489Z,100267.59
2023-05-18T00:56:48.828Z,100259.44
2023-05-18T00:59:18.717Z,100217.78
2023-05-18T01:01:47.056Z,100260.41
2023-05-18T01:04:16.474Z,100235.84
2023-05-18T01:06:46.591Z,100259.97
2023-05-18T01:09:16.376Z,100263.72
2023-05-18T01:11:53.479Z,100259.06
2023-05-18T01:14:30.740Z,100251.09
2023-05-18T01:17:07.579Z,100255.34
2023-05-18T01:20:08.147Z,100262.31
2023-05-18T01:22:50.672Z,100259.00
2023-05-18T01:25:30.154Z,100230.81
2023-05-18T01:28:06.145Z,100246.00
2023-05-18T01:30:35.588Z,100263.53
2023-05-18T01:33:08.523Z,100262.84
2023-05-18T01:35:37.031Z,100231.25
2023-05-18T01:38:05.483Z,100242.97
2023-05-18T01:40:36.600Z,100260.66
2023-05-18T01:43:11.852Z,100271.44
2023-05-18T01:45:45.243Z,100262.19
2023-05-18T01:48:17.502Z,100265.63
2023-05-18T01:50:49.925Z,100277.56
2023-05-18T01:53:24.977Z,100276.94
2023-05-18T01:55:55.444Z,100279.16
2023-05-18T01:58:25.475Z,100269.19
2023-05-18T02:00:53.627Z,100270.16
2023-05-18T02:03:22.204Z,100227.75
2023-05-18T02:05:50.543Z,100259.97
2023-05-18T02:08:18.728Z,100253.78
2023-05-18T02:10:46.692Z,100241.84
2023-05-18T02:13:15.292Z,100261.53
2023-05-18T02:15:45.708Z,100255.22
2023-05-18T02:18:14.085Z,100268.84
2023-05-18T02:20:42.036Z,100283.06
2023-05-18T02:23:10.083Z,100285.97
2023-05-18T02:25:38.771Z,100303.41
2023-05-18T02:28:06.755Z,100295.50
2023-05-18T02:30:34.776Z,100287.31
2023-05-18T02:33:04.494Z,100277.50
2023-05-18T02:35:32.854Z,100269.66
2023-05-18T02:38:00.944Z,100280.66
2023-05-18T02:40:29.048Z,100302.38
2023-05-18T02:42:57.218Z,100295.94
2023-05-18T02:45:25.255Z,100297.00
2023-05-18T02:47:53.409Z,100304.19
2023-05-18T02:50:22.776Z,100301.97
2023-05-18T02:52:51.367Z,100300.94
2023-05-18T02:55:19.407Z,100306.38
2023-05-18T02:57:48.257Z,100310.59
2023-05-18T03:00:18.198Z,100305.66
2023-05-18T03:02:48.788Z,100308.03
2023-05-18T03:05:18.614Z,100308.63
2023-05-18T03:07:51.093Z,100317.88
2023-05-18T03:10:19.567Z,100311.63
2023-05-18T03:12:47.574Z,100322.28
2023-05-18T03:15:16.874Z,100321.13
2023-05-18T03:17:44.920Z,100325.97
2023-05-18T03:20:14.646Z,100325.03
2023-05-18T03:22:43.735Z,100321.75
2023-05-18T03:25:13.143Z,100336.13
2023-05-18T03:27:41.129Z,100337.16
2023-05-18T03:30:10.225Z,100331.78
2023-05-18T03:32:38.391Z,100342.34
2023-05-18T03:35:07.045Z,100330.97
2023-05-18T03:37:35.031Z,100338.31
2023-05-18T03:40:12.101Z,100325.41
2023-05-18T03:42:42.343Z,100325.84
2023-05-18T03:45:11.576Z,100346.03
2023-05-18T03:47:40.747Z,100341.28
2023-05-18T03:50:09.535Z,100337.50
2023-05-18T03:52:37.952Z,100333.66
2023-05-18T03:55:07.077Z,100356.94
2023-05-18T03:57:35.078Z,100360.53
2023-05-18T04:00:08.108Z,100350.06
2023-05-18T04:02:36.349Z,100358.72
2023-05-18T04:05:05.445Z,100360.53
2023-05-18T04:07:33.699Z,100367.19
2023-05-18T04:10:01.674Z,100359.81
2023-05-18T04:12:29.790Z,100360.63
2023-05-18T04:14:58.338Z,100361.59
2023-05-18T04:17:27.729Z,100362.91
2023-05-18T04:19:56.009Z,100371.56
2023-05-18T04:22:23.995Z,100380.81
2023-05-18T04:24:55.258Z,100384.03
2023-05-18T04:27:23.273Z,100393.25
2023-05-18T04:29:51.981Z,100388.63
2023-05-18T04:32:20.834Z,100392.56
2023-05-18T04:34:50.596Z,100405.66
2023-05-18T04:37:19.107Z,100413.03
2023-05-18T04:39:47.456Z,100412.06
2023-05-18T04:42:18.589Z,100409.94
2023-05-18T04:44:48.950Z,100416.78
2023-05-18T04:47:16.919Z,100416.31
2023-05-18T04:49:44.857Z,100423.97
2023-05-18T04:52:15.044Z,100419.19
2023-05-18T04:54:43.329Z,100426.31
2023-05-18T04:57:11.716Z,100427.66
2023-05-18T04:59:39.974Z,100415.78
2023-05-18T05:02:08.200Z,100421.16
2023-05-18T05:04:36.441Z,100417.31
2023-05-18T05:07:04.431Z,100424.56
2023-05-18T05:09:33.743Z,100420.88
2023-05-18T05:12:02.194Z,100422.03
2023-05-18T05:14:30.131Z,100423.22
2023-05-18T05:16:58.085Z,100428.66
2023-05-18T05:19:26.142Z,100433.88
2023-05-18T05:21:54.173Z,100433.16
2023-05-18T05:24:22.156Z,100431.88
2023-05-18T05:26:51.494Z,100435.19
2023-05-18T05:29:19.922Z,100438.56
2023-05-18T05:31:47.935Z,100447.72
2023-05-18T05:34:16.120Z,100422.78
2023-05-18T05:36:44.076Z,100453.16
2023-05-18T05:39:12.006Z,100461.09
2023-05-18T05:41:41.083Z,100450.25
2023-05-18T05:44:10.427Z,100460.31
2023-05-18T05:46:38.454Z,100467.81
2023-05-18T05:49:06.512Z,100469.06
2023-05-18T05:51:34.521Z,100464.56
2023-05-18T05:54:02.470Z,100467.28
2023-05-18T05:56:30.421Z,100464.16
2023-05-18T05:58:58.407Z,100472.47
2023-05-18T06:01:27.753Z,100456.75
2023-05-18T06:03:55.868Z,100469.53
2023-05-18T06:06:23.897Z,100465.38
2023-05-18T06:08:52.017Z,100466.47
2023-05-18T06:11:19.996Z,100467.06
2023-05-18T06:13:48.000Z,100470.56
2023-05-18T06:16:16.056Z,100470.28
2023-05-18T06:18:45.498Z,100466.72
2023-05-18T06:21:13.494Z,100475.34
2023-05-18T06:23:42.046Z,100472.88
2023-05-18T06:26:10.134Z,100481.47
2023-05-18T06:28:38.065Z,100474.34
2023-05-18T06:31:06.497Z,100477.13
2023-05-18T06:33:35.530Z,100476.91
2023-05-18T06:36:05.485Z,100482.59
2023-05-18T06:38:33.456Z,100483.44
2023-05-18T06:41:01.502Z,100482.06
2023-05-18T06:43:29.466Z,100476.03
2023-05-18T06:45:57.863Z,100486.63
2023-05-18T06:48:27.640Z,100484.19
2023-05-18T06:50:55.715Z,100485.09
2023-05-18T06:53:25.079Z,100481.25
2023-05-18T06:55:53.165Z,100482.22
2023-05-18T06:58:22.031Z,100494.53
2023-05-18T07:00:49.964Z,100486.97
2023-05-18T07:03:18.652Z,100471.97
2023-05-18T07:05:46.655Z,100492.59
2023-05-18T07:08:14.654Z,100500.59
2023-05-18T07:10:44.068Z,100501.41
2023-05-18T07:13:12.467Z,100494.22
2023-05-18T07:15:40.434Z,100500.94
2023-05-18T07:18:08.574Z,100505.25
2023-05-18T07:20:36.588Z,100513.56
2023-05-18T07:23:04.570Z,100520.31
2023-05-18T07:25:32.687Z,100513.25
2023-05-18T07:28:02.252Z,100522.72
2023-05-18T07:30:30.218Z,100525.91
2023-05-18T07:32:58.258Z,100533.22
2023-05-18T07:35:26.602Z,100526.25
2023-05-18T07:37:55.096Z,100537.41
2023-05-18T07:40:23.220Z,100519.84
2023-05-18T07:42:51.223Z,100525.00
2023-05-18T07:45:20.609Z,100535.06
2023-05-18T07:47:48.581Z,100542.63
2023-05-18T07:50:16.885Z,100542.19
2023-05-18T07:52:45.036Z,100545.09
2023-05-18T07:55:13.018Z,100480.63
2023-05-18T07:57:41.309Z,100544.63
2023-05-18T08:00:10.526Z,100536.50
2023-05-18T08:02:40.114Z,100548.81
2023-05-18T08:05:11.125Z,100551.97
2023-05-18T08:07:39.357Z,100543.91
2023-05-18T08:10:07.983Z,100549.50
2023-05-18T08:12:35.976Z,100547.88
2023-05-18T08:15:04.156Z,100552.03
2023-05-18T08:17:32.246Z,100544.88
2023-05-18T08:20:01.666Z,100557.47
2023-05-18T08:22:29.614Z,100559.81
2023-05-18T08:25:00.930Z,100550.84
2023-05-18T08:27:29.552Z,100553.03
2023-05-18T08:29:57.557Z,100560.66
2023-05-18T08:32:25.566Z,100563.94
2023-05-18T08:34:54.364Z,100565.34
2023-05-18T08:37:29.105Z,100565.22
2023-05-18T08:39:57.269Z,100568.63
2023-05-18T08:42:41.454Z,100560.59
2023-05-18T08:45:25.163Z,100578.00
2023-05-18T08:47:57.516Z,100566.84
2023-05-18T08:50:27.567Z,100569.75
2023-05-18T08:52:59.901Z,100571.78
2023-05-18T08:55:29.694Z,100571.63
2023-05-18T08:58:00.469Z,100570.78
2023-05-18T09:00:29.251Z,100560.63
2023-05-18T09:02:57.850Z,100574.09
2023-05-18T09:05:26.119Z,100572.19
2023-05-18T09:07:57.731Z,100573.84
2023-05-18T09:10:26.207Z,100576.38
2023-05-18T09:12:57.925Z,100577.41
2023-05-18T09:15:27.096Z,100587.63
2023-05-18T09:17:55.079Z,100567.50
2023-05-18T09:20:23.391Z,100579.97
2023-05-18T09:22:51.627Z,100585.53
2023-05-18T09:25:22.597Z,100565.41
2023-05-18T09:27:53.094Z,100576.94
2023-05-18T09:30:21.230Z,100576.28
2023-05-18T09:32:49.420Z,100576.78
2023-05-18T09:35:17.560Z,100575.91
2023-05-18T09:37:47.030Z,100563.97
2023-05-18T09:40:16.727Z,100574.84
2023-05-18T09:42:46.477Z,100573.88
2023-05-18T09:45:19.478Z,100564.66
2023-05-18T09:47:47.746Z,100542.25
2023-05-18T09:50:15.683Z,100558.03
2023-05-18T09:52:44.991Z,100553.91
2023-05-18T09:55:13.417Z,100559.38
2023-05-18T09:57:44.117Z,100551.41
2023-05-18T10:00:15.709Z,100559.75
2023-05-18T10:02:48.702Z,100561.38
2023-05-18T10:05:23.770Z,100557.53
2023-05-18T10:07:53.039Z,100563.88
2023-05-18T10:10:22.108Z,100544.19
2023-05-18T10:12:52.285Z,100554.66
2023-05-18T10:15:23.336Z,100568.19
2023-05-18T10:17:53.039Z,100563.13
2023-05-18T10:20:24.250Z,100566.13
2023-05-18T10:22:53.302Z,100564.47
2023-05-18T10:25:23.031Z,100564.78
2023-05-18T10:27:52.621Z,100559.19
2023-05-18T10:30:23.041Z,100545.63
2023-05-18T10:32:52.579Z,100529.50
2023-05-18T10:35:21.852Z,100542.72
2023-05-18T10:37:53.117Z,100544.88
2023-05-18T10:40:22.344Z,100539.78
2023-05-18T10:42:51.922Z,100543.06
2023-05-18T10:45:21.666Z,100535.63
2023-05-18T10:47:54.396Z,100530.91
2023-05-18T10:50:24.128Z,100530.84
2023-05-18T10:52:54.359Z,100531.50
2023-05-18T10:55:22.739Z,100530.94
2023-05-18T10:57:56.044Z,100525.47
2023-05-18T11:00:25.625Z,100537.59
2023-05-18T11:02:55.037Z,100545.53
2023-05-18T11:05:26.766Z,100544.50
2023-05-18T11:08:03.384Z,100532.94
2023-05-18T11:10:36.204Z,100532.50
2023-05-18T11:13:04.704Z,100536.34
2023-05-18T11:16:08.760Z,100532.69
2023-05-18T11:18:39.810Z,100529.94
2023-05-18T11:21:35.734Z,100533.75
2023-05-18T11:24:20.247Z,100528.47
2023-05-18T11:26:50.053Z,100534.09
2023-05-18T11:29:23.533Z,100532.84
2023-05-18T11:31:54.872Z,100524.00
2023-05-18T11:34:44.738Z,100530.44
2023-05-18T11:37:14.612Z,100521.53
2023-05-18T11:39:55.455Z,100528.47
2023-05-18T11:42:33.378Z,100522.47
2023-05-18T11:45:07.774Z,100536.72
2023-05-18T11:47:38.188Z,100538.38
2023-05-18T11:50:09.434Z,100539.63
2023-05-18T11:52:47.156Z,100533.84
2023-05-18T11:55:17.126Z,100535.81
2023-05-18T11:57:46.332Z,100526.47
2023-05-18T12:00:16.158Z,100531.34
2023-05-18T12:02:48.216Z,100522.41
2023-05-18T12:05:16.578Z,100517.16
2023-05-18T12:07:44.987Z,100534.22
2023-05-18T12:10:16.219Z,100528.75
2023-05-18T12:12:44.866Z,100534.41
2023-05-18T12:15:16.844Z,100526.81
2023-05-18T12:17:48.083Z,100528.31
2023-05-18T12:20:17.462Z,100527.16
2023-05-18T12:22:47.079Z,100523.50
2023-05-18T12:25:15.036Z,100525.50
2023-05-18T12:27:44.094Z,100516.72
2023-05-18T12:30:13.976Z,100518.84
2023-05-18T12:32:48.616Z,100519.81
2023-05-18T12:35:17.098Z,100510.34
2023-05-18T12:37:46.233Z,100510.47
2023-05-18T12:40:16.254Z,100502.91
2023-05-18T12:42:52.932Z,100497.97
2023-05-18T12:45:23.603Z,100492.47
2023-05-18T12:47:54.772Z,100478.91
2023-05-18T12:50:23.649Z,100493.75
2023-05-18T12:52:52.301Z,100490.78
2023-05-18T12:55:22.962Z,100486.06
2023-05-18T12:58:01.829Z,100486.22
2023-05-18T13:00:33.891Z,100491.69
2023-05-18T13:03:12.853Z,100499.75
2023-05-18T13:05:44.283Z,100492.97
2023-05-18T13:08:16.302Z,100490.41
2023-05-18T13:10:45.656Z,100488.56
2023-05-18T13:13:16.859Z,100482.84
2023-05-18T13:15:45.678Z,100488.16
2023-05-18T13:18:15.708Z,100500.53
2023-05-18T13:20:45.584Z,100501.72
2023-05-18T13:23:16.605Z,100498.41
2023-05-18T13:25:46.396Z,100495.75
2023-05-18T13:28:16.596Z,100501.53
2023-05-18T13:30:45.480Z,100487.28
2023-05-18T13:33:14.829Z,100498.34
2023-05-18T13:35:44.110Z,100482.97
2023-05-18T13:38:13.268Z,100498.84
2023-05-18T13:40:41.771Z,100502.94
2023-05-18T13:43:11.956Z,100480.28
2023-05-18T13:45:41.605Z,100486.75
2023-05-18T13:48:10.730Z,100495.44
2023-05-18T13:50:40.730Z,100489.00
2023-05-18T13:53:08.734Z,100479.75
2023-05-18T13:55:37.089Z,100495.78
2023-05-18T13:58:05.485Z,100482.38
2023-05-18T14:00:34.114Z,100492.31
2023-05-18T14:03:02.843Z,100493.84
2023-05-18T14:05:30.966Z,100480.22
2023-05-18T14:08:01.631Z,100480.69
2023-05-18T14:10:29.888Z,100468.31
2023-05-18T14:12:58.056Z,100485.66
2023-05-18T14:15:26.070Z,100477.41
2023-05-18T14:17:54.094Z,100475.41
2023-05-18T14:20:22.161Z,100476.50
2023-05-18T14:22:50.158Z,100479.31
2023-05-18T14:25:19.825Z,100486.25
2023-05-18T14:27:48.152Z,100478.28
2023-05-18T14:30:16.218Z,100467.94
2023-05-18T14:32:44.220Z,100484.28
2023-05-18T14:35:12.662Z,100465.59
2023-05-18T14:37:40.635Z,100462.94
2023-05-18T14:40:09.923Z,100467.75
2023-05-18T14:42:39.338Z,100456.00
2023-05-18T14:45:08.412Z,100474.16
2023-05-18T14:47:36.374Z,100471.13
2023-05-18T14:50:04.532Z,100476.44
2023-05-18T14:52:32.725Z,100477.75
2023-05-18T14:55:00.865Z,100476.09
2023-05-18T14:57:28.874Z,100479.06
2023-05-18T14:59:58.398Z,100476.91
2023-05-18T15:02:26.396Z,100479.41
2023-05-18T15:04:54.400Z,100468.19
2023-05-18T15:07:22.402Z,100469.19
2023-05-18T15:09:50.442Z,100464.19
2023-05-18T15:12:19.724Z,100466.72
2023-05-18T15:14:47.711Z,100464.59
2023-05-18T15:17:17.982Z,100446.44
2023-05-18T15:19:47.127Z,100461.97
2023-05-18T15:22:15.184Z,100403.97
2023-05-18T15:24:43.688Z,100449.59
2023-05-18T15:27:12.208Z,100442.19
2023-05-18T15:29:40.272Z,100463.63
2023-05-18T15:32:08.991Z,100450.78
2023-05-18T15:34:38.414Z,100454.75
2023-05-18T15:37:06.435Z,100437.59
2023-05-18T15:39:34.411Z,100461.41
2023-05-18T15:42:02.425Z,100462.38
2023-05-18T15:44:30.408Z,100453.97
2023-05-18T15:46:58.514Z,100459.25
2023-05-18T15:49:26.496Z,100426.84
2023-05-18T15:51:55.825Z,100458.75
2023-05-18T15:54:23.971Z,100462.47
2023-05-18T15:56:52.025Z,100454.25
2023-05-18T15:59:19.995Z,100459.16
2023-05-18T16:01:48.121Z,100435.16
2023-05-18T16:04:16.245Z,100460.25
2023-05-18T16:06:44.218Z,100470.22
2023-05-18T16:09:13.564Z,100470.22
2023-05-18T16:11:41.522Z,100418.34
2023-05-18T16:14:09.581Z,100477.06
2023-05-18T16:16:37.624Z,100465.97
2023-05-18T16:19:07.427Z,100468.09
2023-05-18T16:21:35.594Z,100486.78
2023-05-18T16:24:03.571Z,100487.41
2023-05-18T16:26:33.835Z,100496.22
2023-05-18T16:29:03.363Z,100500.88
2023-05-18T16:31:31.506Z,100497.88
2023-05-18T16:33:59.794Z,100501.81
2023-05-18T16:36:27.780Z,100502.13
2023-05-18T16:38:55.896Z,100502.63
2023-05-18T16:41:23.950Z,100507.59
2023-05-18T16:43:53.272Z,100503.75
2023-05-18T16:46:21.425Z,100502.63
2023-05-18T16:48:49.398Z,100513.66
2023-05-18T16:51:17.417Z,100513.88
2023-05-18T16:53:45.404Z,100512.97
2023-05-18T16:56:13.570Z,100511.06
2023-05-18T16:58:41.574Z,100517.84
2023-05-18T17:01:26.275Z,100509.25
2023-05-18T17:03:55.934Z,100520.31
2023-05-18T17:06:24.134Z,100519.66
2023-05-18T17:08:57.520Z,100510.13
2023-05-18T17:11:27.031Z,100524.00
2023-05-18T17:13:55.298Z,100516.22
2023-05-18T17:16:26.611Z,100517.13
2023-05-18T17:18:54.968Z,100516.91
2023-05-18T17:21:23.959Z,100531.09
2023-05-18T17:23:51.927Z,100523.88
2023-05-18T17:26:20.186Z,100532.91
2023-05-18T17:28:48.115Z,100531.47
2023-05-18T17:31:16.152Z,100536.97
2023-05-18T17:33:47.409Z,100539.25
2023-05-18T17:36:16.333Z,100546.84
2023-05-18T17:38:44.293Z,100539.66
2023-05-18T17:41:12.262Z,100546.84
2023-05-18T17:43:40.210Z,100549.81
2023-05-18T17:46:08.186Z,100544.19
2023-05-18T17:48:36.107Z,100548.63
2023-05-18T17:51:05.609Z,100540.72
2023-05-18T17:53:33.910Z,100554.84
2023-05-18T17:56:01.923Z,100543.22
2023-05-18T17:58:29.869Z,100559.66
2023-05-18T18:00:57.880Z,100561.47
2023-05-18T18:03:26.129Z,100546.81
2023-05-18T18:05:54.752Z,100568.78
2023-05-18T18:08:25.165Z,100562.31
2023-05-18T18:10:53.428Z,100563.81
2023-05-18T18:13:21.370Z,100572.09
2023-05-18T18:15:49.512Z,100571.41
2023-05-18T18:18:17.630Z,100572.94
2023-05-18T18:20:45.640Z,100574.47
2023-05-18T18:23:14.109Z,100580.56
2023-05-18T18:25:44.186Z,100576.97
2023-05-18T18:28:15.192Z,100571.97
2023-05-18T18:30:44.556Z,100579.97
2023-05-18T18:33:14.229Z,100572.34
2023-05-18T18:35:43.204Z,100579.28
2023-05-18T18:38:12.900Z,100574.72
2023-05-18T18:40:41.216Z,100581.03
2023-05-18T18:43:10.575Z,100575.75
2023-05-18T18:45:38.601Z,100576.03
2023-05-18T18:48:07.226Z,100578.41
2023-05-18T18:50:35.354Z,100572.75
2023-05-18T18:53:03.320Z,100574.91
2023-05-18T18:55:31.556Z,100577.09
2023-05-18T18:58:01.397Z,100575.72
2023-05-18T19:00:31.247Z,100578.88
2023-05-18T19:02:59.391Z,100578.41
2023-05-18T19:05:28.421Z,100588.47
2023-05-18T19:07:56.413Z,100594.09
2023-05-18T19:10:25.500Z,100601.50
2023-05-18T19:12:53.445Z,100588.69
2023-05-18T19:15:22.375Z,100597.25
2023-05-18T19:17:53.848Z,100599.53
2023-05-18T19:20:23.811Z,100604.25
2023-05-18T19:22:53.485Z,100602.16
2023-05-18T19:25:21.826Z,100597.53
2023-05-18T19:27:49.911Z,100606.72
2023-05-18T19:30:21.189Z,100592.66
2023-05-18T19:32:51.596Z,100592.59
2023-05-18T19:35:20.508Z,100598.97
2023-05-18T19:37:48.700Z,100588.56
2023-05-18T19:40:16.753Z,100599.94
2023-05-18T19:42:45.029Z,100600.22
2023-05-18T19:45:13.036Z,100604.63
2023-05-18T19:47:41.040Z,100598.22
2023-05-18T19:50:10.874Z,100594.75
2023-05-18T19:52:38.831Z,100585.44
2023-05-18T19:55:07.828Z,100599.69
2023-05-18T19:57:36.210Z,100595.72
2023-05-18T20:00:05.860Z,100599.22
2023-05-18T20:02:33.860Z,100605.22
2023-05-18T20:05:01.887Z,100603.31
2023-05-18T20:07:31.328Z,100600.34
2023-05-18T20:09:59.286Z,100597.50
2023-05-18T20:12:28.970Z,100606.28
2023-05-18T20:14:57.167Z,100603.19
2023-05-18T20:17:25.709Z,100600.88
2023-05-18T20:19:53.815Z,100590.88
2023-05-18T20:22:21.813Z,100600.88
2023-05-18T20:24:51.290Z,100597.88
2023-05-18T20:27:19.265Z,100594.94
2023-05-18T20:29:47.799Z,100598.56
2023-05-18T20:32:15.786Z,100595.31
2023-05-18T20:34:44.583Z,100596.19
2023-05-18T20:37:14.139Z,100582.47
2023-05-18T20:39:50.439Z,100592.19
2023-05-18T20:42:22.833Z,100591.47
2023-05-18T20:44:52.950Z,100590.59
2023-05-18T20:47:21.093Z,100603.06
2023-05-18T20:49:49.341Z,100606.88
2023-05-18T20:52:17.301Z,100600.81
2023-05-18T20:54:45.261Z,100600.25
2023-05-18T20:57:13.268Z,100616.41
2023-05-18T20:59:42.716Z,100612.22
2023-05-18T21:02:10.742Z,100610.84
2023-05-18T21:04:38.680Z,100604.75
2023-05-18T21:07:06.703Z,100606.63
2023-05-18T21:09:34.627Z,100608.44
2023-05-18T21:12:02.788Z,100611.28
2023-05-18T21:14:30.870Z,100604.06
2023-05-18T21:17:00.216Z,100607.38
2023-05-18T21:19:28.183Z,100609.41
2023-05-18T21:21:56.313Z,100612.88
2023-05-18T21:24:24.280Z,100611.47
2023-05-18T21:26:52.282Z,100608.97
2023-05-18T21:29:20.221Z,100609.19
2023-05-18T21:31:48.785Z,100612.34
2023-05-18T21:34:18.411Z,100607.69
2023-05-18T21:36:46.450Z,100605.78
2023-05-18T21:39:14.420Z,100613.88
2023-05-18T21:41:44.359Z,100608.81
2023-05-18T21:44:12.475Z,100611.53
2023-05-18T21:46:40.605Z,100612.00
2023-05-18T21:49:09.304Z,100613.44
2023-05-18T21:51:38.629Z,100615.09
2023-05-18T21:54:06.705Z,100629.38
2023-05-18T21:56:36.849Z,100635.53
2023-05-18T21:59:04.839Z,100632.59
2023-05-18T22:01:32.819Z,100633.88
2023-05-18T22:04:00.821Z,100638.66
2023-05-18T22:06:29.187Z,100643.38
2023-05-18T22:08:58.570Z,100634.84
2023-05-18T22:11:26.495Z,100636.84
2023-05-18T22:13:55.034Z,100634.84
2023-05-18T22:16:23.016Z,100623.41
2023-05-18T22:18:51.050Z,100630.91
2023-05-18T22:21:19.052Z,100626.94
2023-05-18T22:23:46.991Z,100630.41
2023-05-18T22:26:16.342Z,100632.06
2023-05-18T22:28:44.266Z,100629.41
2023-05-18T22:31:12.218Z,100624.66
2023-05-18T22:33:40.149Z,100630.09
2023-05-18T22:36:08.382Z,100626.53
2023-05-18T22:38:36.326Z,100623.03
2023-05-18T22:41:04.280Z,100615.84
2023-05-18T22:43:33.616Z,100618.84
2023-05-18T22:46:02.065Z,100615.19
2023-05-18T22:48:32.030Z,100622.19
2023-05-18T22:51:00.930Z,100621.41
2023-05-18T22:53:28.868Z,100628.06
2023-05-18T22:55:57.092Z,100629.72
2023-05-18T22:58:25.377Z,100630.81
2023-05-18T23:00:54.768Z,100631.03
2023-05-18T23:03:22.709Z,100635.53
2023-05-18T23:05:50.819Z,100634.06
2023-05-18T23:08:20.352Z,100637.03
2023-05-18T23:10:50.793Z,100647.78
2023-05-18T23:13:19.738Z,100640.31
2023-05-18T23:15:47.968Z,100637.81
2023-05-18T23:18:17.361Z,100640.63
2023-05-18T23:20:45.303Z,100644.28
2023-05-18T23:23:13.271Z,100646.78
2023-05-18T23:25:41.277Z,100628.47
2023-05-18T23:28:09.212Z,100643.91
2023-05-18T23:30:37.159Z,100647.03
2023-05-18T23:33:06.301Z,100648.41
2023-05-18T23:35:36.833Z,100651.94
2023-05-18T23:38:06.451Z,100646.44
2023-05-18T23:40:34.824Z,100643.84
2023-05-18T23:43:03.256Z,100647.38
2023-05-18T23:45:31.930Z,100650.63
2023-05-18T23:48:00.628Z,100646.25
2023-05-18T23:50:29.331Z,100649.06
2023-05-18T23:53:04.590Z,100645.50
2023-05-18T23:55:36.255Z,100641.97
2023-05-18T23:58:06.051Z,100639.56
